createdAt,value
2024-01-20T00:01:34.849Z,91.12
2024-01-20T00:04:03.421Z,91.37
2024-01-20T00:06:33.051Z,91.23
2024-01-20T00:09:01.216Z,91.89
2024-01-20T00:11:29.356Z,91.31
2024-01-20T00:13:57.491Z,91.26
2024-01-20T00:16:25.475Z,91.30
2024-01-20T00:18:53.395Z,90.92
2024-01-20T00:21:21.527Z,91.33
2024-01-20T00:23:50.812Z,91.12
2024-01-20T00:26:19.034Z,91.42
2024-01-20T00:28:47.114Z,91.37
2024-01-20T00:31:15.180Z,91.38
2024-01-20T00:33:43.190Z,91.17
2024-01-20T00:36:11.208Z,91.07
2024-01-20T00:38:40.268Z,91.76
2024-01-20T00:41:12.623Z,90.74
2024-01-20T00:43:40.521Z,90.45
2024-01-20T00:46:09.037Z,90.47
2024-01-20T00:48:37.028Z,89.94
2024-01-20T00:51:05.136Z,90.12
2024-01-20T00:53:32.996Z,89.89
2024-01-20T00:56:04.634Z,90.31
2024-01-20T00:58:33.732Z,90.26
2024-01-20T01:01:01.607Z,90.22
2024-01-20T01:03:43.950Z,89.41
2024-01-20T01:06:11.992Z,89.20
2024-01-20T01:08:40.344Z,89.42
2024-01-20T01:11:09.313Z,90.17
2024-01-20T01:13:40.413Z,90.43
2024-01-20T01:16:11.215Z,90.76
2024-01-20T01:18:39.077Z,90.91
2024-01-20T01:21:06.905Z,90.87
2024-01-20T01:23:34.773Z,90.92
2024-01-20T01:26:02.743Z,91.28
2024-01-20T01:28:30.499Z,91.38
2024-01-20T01:30:59.587Z,91.41
2024-01-20T01:33:27.366Z,91.60
2024-01-20T01:35:55.120Z,91.54
2024-01-20T01:38:22.944Z,91.59
2024-01-20T01:40:50.799Z,91.16
2024-01-20T01:43:18.603Z,91.50
2024-01-20T01:45:46.442Z,91.38
2024-01-20T01:48:15.882Z,91.21
2024-01-20T01:50:43.768Z,91.58
2024-01-20T01:53:13.464Z,92.12
2024-01-20T01:55:44.760Z,92.11
2024-01-20T01:58:12.655Z,92.08
2024-01-20T02:00:40.442Z,92.23
2024-01-20T02:03:11.067Z,91.44
2024-01-20T02:05:40.367Z,91.51
2024-01-20T02:08:09.092Z,91.41
2024-01-20T02:10:37.778Z,92.06
2024-01-20T02:13:08.832Z,91.83
2024-01-20T02:15:38.587Z,91.97
2024-01-20T02:18:06.606Z,92.10
2024-01-20T02:20:34.463Z,91.66
2024-01-20T02:23:03.806Z,91.52
2024-01-20T02:25:31.636Z,92.00
2024-01-20T02:27:59.422Z,91.83
2024-01-20T02:30:27.416Z,91.93
2024-01-20T02:32:55.346Z,91.91
2024-01-20T02:35:22.448Z,92.28
2024-01-20T02:37:50.262Z,92.05
2024-01-20T02:40:19.507Z,92.18
2024-01-20T02:42:47.240Z,92.11
2024-01-20T02:45:15.069Z,92.87
2024-01-20T02:47:42.938Z,92.26
2024-01-20T02:50:11.038Z,93.46
2024-01-20T02:52:38.771Z,92.88
2024-01-20T02:55:10.027Z,93.21
2024-01-20T02:57:39.198Z,93.24
2024-01-20T03:00:11.215Z,92.82
2024-01-20T03:02:39.041Z,92.77
2024-01-20T03:05:10.108Z,92.73
2024-01-20T03:07:37.954Z,92.87
2024-01-20T03:10:06.903Z,92.95
2024-01-20T03:12:34.953Z,92.32
2024-01-20T03:15:04.748Z,93.37
2024-01-20T03:17:32.660Z,93.19
2024-01-20T03:20:00.516Z,92.99
2024-01-20T03:22:28.337Z,93.53
2024-01-20T03:24:56.077Z,93.40
2024-01-20T03:27:23.948Z,92.93
2024-01-20T03:29:51.984Z,93.13
2024-01-20T03:32:21.081Z,93.24
2024-01-20T03:34:49.115Z,93.12
2024-01-20T03:37:16.894Z,93.08
2024-01-20T03:39:44.688Z,92.75
2024-01-20T03:42:12.613Z,93.33
2024-01-20T03:44:40.435Z,92.92
2024-01-20T03:47:08.640Z,93.45
2024-01-20T03:49:37.805Z,93.05
2024-01-20T03:52:06.001Z,92.96
2024-01-20T03:54:33.865Z,92.86
2024-01-20T03:57:01.720Z,92.76
2024-01-20T03:59:29.544Z,93.52
2024-01-20T04:01:57.260Z,93.67
2024-01-20T04:04:25.123Z,93.18
2024-01-20T04:06:54.892Z,93.65
2024-01-20T04:09:22.774Z,92.94
2024-01-20T04:11:50.778Z,93.19
2024-01-20T04:14:18.606Z,92.85
2024-01-20T04:16:46.297Z,92.92
2024-01-20T04:19:14.128Z,92.69
2024-01-20T04:21:43.920Z,93.27
2024-01-20T04:24:12.993Z,93.02
2024-01-20T04:26:40.853Z,92.97
2024-01-20T04:29:08.932Z,92.72
2024-01-20T04:31:36.651Z,92.64
2024-01-20T04:34:04.452Z,92.57
2024-01-20T04:36:32.151Z,92.78
2024-01-20T04:38:59.839Z,92.43
2024-01-20T04:41:28.950Z,92.47
2024-01-20T04:43:56.696Z,91.60
2024-01-20T04:46:24.486Z,91.66
2024-01-20T04:48:52.341Z,91.14
2024-01-20T04:51:23.315Z,91.20
2024-01-20T04:53:52.492Z,91.84
2024-01-20T04:56:21.766Z,91.63
2024-01-20T04:58:51.022Z,92.01
2024-01-20T05:01:18.905Z,92.19
2024-01-20T05:03:46.961Z,92.77
2024-01-20T05:06:15.389Z,92.63
2024-01-20T05:08:43.205Z,93.03
2024-01-20T05:11:11.467Z,93.00
2024-01-20T05:13:39.248Z,93.57
2024-01-20T05:16:08.921Z,93.96
2024-01-20T05:18:36.755Z,93.61
2024-01-20T05:21:04.798Z,93.45
2024-01-20T05:23:32.549Z,93.86
2024-01-20T05:26:00.428Z,94.21
2024-01-20T05:28:28.184Z,93.53
2024-01-20T05:30:55.959Z,94.34
2024-01-20T05:33:25.141Z,94.47
2024-01-20T05:35:53.003Z,94.31
2024-01-20T05:38:20.848Z,93.43
2024-01-20T05:40:48.622Z,94.48
2024-01-20T05:43:16.343Z,94.51
2024-01-20T05:45:44.187Z,94.65
2024-01-20T05:48:12.095Z,94.77
2024-01-20T05:50:41.370Z,94.90
2024-01-20T05:53:09.815Z,94.69
2024-01-20T05:55:37.603Z,94.94
2024-01-20T05:58:07.959Z,95.60
2024-01-20T06:00:35.727Z,95.35
2024-01-20T06:03:03.606Z,95.18
2024-01-20T06:05:32.650Z,95.79
2024-01-20T06:08:01.892Z,95.50
2024-01-20T06:10:29.721Z,95.47
2024-01-20T06:12:57.434Z,95.57
2024-01-20T06:15:25.188Z,95.33
2024-01-20T06:17:53.022Z,95.31
2024-01-20T06:20:20.834Z,95.52
2024-01-20T06:22:48.524Z,95.43
2024-01-20T06:25:17.616Z,95.34
2024-01-20T06:27:45.314Z,95.21
2024-01-20T06:30:14.175Z,95.10
2024-01-20T06:32:42.006Z,95.37
2024-01-20T06:35:15.715Z,94.74
2024-01-20T06:37:42.477Z,94.97
2024-01-20T06:40:10.911Z,94.98
2024-01-20T06:42:40.000Z,95.04
2024-01-20T06:45:10.983Z,94.74
2024-01-20T06:47:39.075Z,94.85
2024-01-20T06:50:09.646Z,94.94
2024-01-20T06:52:37.489Z,94.54
2024-01-20T06:55:06.835Z,94.62
2024-01-20T06:57:34.667Z,95.05
2024-01-20T07:00:04.987Z,94.20
2024-01-20T07:02:34.615Z,94.73
2024-01-20T07:05:03.431Z,94.99
2024-01-20T07:07:32.689Z,94.18
2024-01-20T07:10:00.535Z,94.31
2024-01-20T07:12:29.670Z,94.48
2024-01-20T07:14:58.589Z,94.88
2024-01-20T07:17:27.727Z,94.98
2024-01-20T07:19:55.592Z,94.84
2024-01-20T07:22:23.617Z,94.84
2024-01-20T07:24:51.522Z,94.36
2024-01-20T07:27:19.431Z,94.96
2024-01-20T07:29:47.184Z,94.53
2024-01-20T07:32:15.018Z,94.65
2024-01-20T07:34:44.150Z,94.80
2024-01-20T07:37:13.355Z,94.81
2024-01-20T07:39:41.232Z,94.77
2024-01-20T07:42:09.078Z,94.28
2024-01-20T07:44:36.814Z,94.67
2024-01-20T07:47:04.986Z,95.20
2024-01-20T07:49:33.212Z,94.34
2024-01-20T07:52:02.408Z,94.50
2024-01-20T07:54:30.260Z,94.32
2024-01-20T07:56:58.081Z,94.25
2024-01-20T07:59:25.844Z,94.45
2024-01-20T08:01:53.598Z,94.31
2024-01-20T08:04:21.512Z,94.33
2024-01-20T08:06:49.549Z,94.26
2024-01-20T08:09:18.990Z,94.83
2024-01-20T08:11:46.764Z,94.20
2024-01-20T08:14:14.989Z,94.33
2024-01-20T08:16:42.764Z,94.23
2024-01-20T08:19:10.703Z,94.10
2024-01-20T08:21:38.566Z,94.28
2024-01-20T08:24:07.744Z,94.78
2024-01-20T08:26:36.856Z,94.66
2024-01-20T08:29:04.657Z,94.61
2024-01-20T08:31:32.414Z,94.66
2024-01-20T08:34:00.438Z,94.66
2024-01-20T08:36:28.494Z,94.21
2024-01-20T08:38:56.376Z,93.84
2024-01-20T08:41:24.267Z,94.07
2024-01-20T08:43:53.951Z,94.07
2024-01-20T08:46:21.855Z,94.06
2024-01-20T08:48:49.614Z,94.05
2024-01-20T08:51:17.383Z,93.87
2024-01-20T08:53:45.172Z,94.22
2024-01-20T08:56:12.936Z,94.10
2024-01-20T08:58:40.775Z,94.11
2024-01-20T09:01:10.389Z,94.18
2024-01-20T09:03:38.474Z,93.65
2024-01-20T09:06:07.042Z,93.50
2024-01-20T09:08:35.443Z,93.56
2024-01-20T09:11:03.309Z,93.59
2024-01-20T09:13:31.138Z,93.63
2024-01-20T09:15:59.094Z,93.63
2024-01-20T09:18:28.522Z,93.97
2024-01-20T09:20:56.788Z,93.40
2024-01-20T09:23:24.669Z,93.82
2024-01-20T09:25:52.603Z,93.45
2024-01-20T09:28:20.409Z,93.24
2024-01-20T09:30:48.312Z,93.46
2024-01-20T09:33:16.576Z,93.13
2024-01-20T09:35:45.864Z,93.30
2024-01-20T09:38:13.821Z,93.28
2024-01-20T09:40:48.672Z,93.21
2024-01-20T09:43:17.294Z,92.93
2024-01-20T09:45:45.605Z,93.17
2024-01-20T09:48:15.852Z,93.18
2024-01-20T09:50:45.095Z,93.13
2024-01-20T09:53:16.067Z,93.30
2024-01-20T09:55:44.939Z,92.97
2024-01-20T09:58:13.645Z,93.05
2024-01-20T10:00:42.549Z,92.83
2024-01-20T10:03:12.474Z,92.81
2024-01-20T10:05:40.505Z,92.85
2024-01-20T10:08:13.666Z,92.76
2024-01-20T10:10:41.414Z,93.02
2024-01-20T10:13:09.137Z,93.09
2024-01-20T10:15:37.251Z,92.90
2024-01-20T10:18:11.929Z,92.61
2024-01-20T10:20:39.869Z,92.78
2024-01-20T10:23:09.529Z,92.60
2024-01-20T10:25:37.481Z,92.54
2024-01-20T10:28:05.751Z,92.72
2024-01-20T10:30:33.507Z,92.38
2024-01-20T10:35:32.096Z,92.63
2024-01-20T10:38:02.630Z,92.71
2024-01-20T10:40:31.719Z,92.63
2024-01-20T10:43:06.485Z,92.38
2024-01-20T10:45:43.691Z,92.51
2024-01-20T10:48:17.699Z,92.26
2024-01-20T10:50:47.958Z,92.70
2024-01-20T10:53:16.765Z,92.73
2024-01-20T10:55:47.527Z,92.46
2024-01-20T10:58:19.670Z,92.22
2024-01-20T11:00:48.159Z,92.18
2024-01-20T11:03:17.202Z,92.20
2024-01-20T11:05:48.725Z,91.82
2024-01-20T11:08:25.240Z,91.75
2024-01-20T11:10:56.285Z,91.93
2024-01-20T11:13:27.546Z,91.62
2024-01-20T11:15:58.770Z,91.34
2024-01-20T11:18:28.436Z,91.69
2024-01-20T11:21:00.249Z,91.25
2024-01-20T11:23:28.254Z,90.67
2024-01-20T11:25:58.233Z,90.51
2024-01-20T11:28:28.518Z,90.35
2024-01-20T11:30:56.318Z,90.12
2024-01-20T11:33:25.860Z,90.15
2024-01-20T11:35:54.349Z,89.57
2024-01-20T11:38:22.803Z,89.58
2024-01-20T11:41:01.950Z,89.24
2024-01-20T11:43:29.915Z,89.36
2024-01-20T11:45:58.545Z,89.58
2024-01-20T11:48:27.241Z,89.37
2024-01-20T11:50:55.262Z,89.40
2024-01-20T11:53:24.023Z,89.16
2024-01-20T11:55:56.258Z,89.25
2024-01-20T11:58:25.392Z,88.96
2024-01-20T12:00:53.879Z,88.73
2024-01-20T12:03:23.041Z,88.47
2024-01-20T12:05:51.636Z,88.63
2024-01-20T12:08:19.971Z,88.76
2024-01-20T12:10:48.191Z,88.54
2024-01-20T12:13:17.594Z,87.47
2024-01-20T12:15:49.479Z,88.19
2024-01-20T12:18:19.317Z,87.92
2024-01-20T12:20:47.489Z,87.50
2024-01-20T12:23:20.147Z,87.62
2024-01-20T12:25:48.388Z,88.25
2024-01-20T12:28:18.187Z,88.19
2024-01-20T12:30:47.311Z,88.43
2024-01-20T12:33:15.323Z,87.75
2024-01-20T12:35:43.176Z,87.85
2024-01-20T12:38:10.953Z,88.52
2024-01-20T12:40:38.717Z,87.29
2024-01-20T12:43:06.555Z,87.20
2024-01-20T12:45:34.436Z,86.64
2024-01-20T12:48:03.699Z,86.97
2024-01-20T12:50:31.583Z,86.80
2024-01-20T12:52:59.510Z,86.72
2024-01-20T12:55:27.197Z,86.16
2024-01-20T12:57:54.940Z,86.35
2024-01-20T13:00:22.863Z,85.70
2024-01-20T13:02:50.735Z,84.46
2024-01-20T13:05:20.019Z,83.98
2024-01-20T13:07:47.942Z,85.71
2024-01-20T13:10:15.853Z,84.05
2024-01-20T13:12:43.694Z,85.12
2024-01-20T13:15:11.947Z,85.02
2024-01-20T13:17:39.970Z,85.29
2024-01-20T13:20:10.578Z,84.60
2024-01-20T13:22:39.712Z,84.64
2024-01-20T13:25:13.385Z,84.29
2024-01-20T13:27:41.171Z,84.87
2024-01-20T13:30:11.379Z,83.90
2024-01-20T13:32:39.232Z,83.79
2024-01-20T13:35:11.088Z,83.00
2024-01-20T13:37:40.186Z,83.16
2024-01-20T13:40:10.670Z,83.19
2024-01-20T13:42:40.776Z,83.81
2024-01-20T13:45:11.172Z,83.02
2024-01-20T13:47:39.184Z,83.11
2024-01-20T13:50:08.017Z,83.17
2024-01-20T13:52:35.882Z,83.20
2024-01-20T13:55:06.770Z,83.75
2024-01-20T13:57:34.785Z,83.88
2024-01-20T14:00:02.677Z,84.31
2024-01-20T14:02:30.560Z,84.32
2024-01-20T14:04:58.817Z,83.66
2024-01-20T14:07:26.769Z,84.16
2024-01-20T14:09:54.557Z,84.67
2024-01-20T14:12:23.732Z,84.53
2024-01-20T14:14:51.596Z,84.48
2024-01-20T14:17:19.377Z,84.07
2024-01-20T14:19:47.262Z,84.26
2024-01-20T14:22:15.799Z,84.45
2024-01-20T14:24:43.667Z,84.52
2024-01-20T14:27:11.476Z,84.29
2024-01-20T14:29:40.632Z,84.37
2024-01-20T14:32:11.188Z,83.85
2024-01-20T14:34:38.935Z,83.89
2024-01-20T14:37:08.125Z,83.57
2024-01-20T14:39:36.457Z,83.96
2024-01-20T14:42:04.671Z,83.84
2024-01-20T14:44:32.488Z,83.47
2024-01-20T14:47:01.622Z,83.28
2024-01-20T14:49:29.438Z,83.97
2024-01-20T14:51:57.321Z,83.31
2024-01-20T14:54:26.604Z,83.43
2024-01-20T14:56:54.541Z,83.37
2024-01-20T14:59:22.400Z,83.42
2024-01-20T15:01:50.169Z,82.91
2024-01-20T15:04:19.429Z,81.92
2024-01-20T15:06:47.313Z,82.88
2024-01-20T15:09:15.249Z,82.76
2024-01-20T15:11:43.101Z,82.75
2024-01-20T15:14:10.878Z,82.34
2024-01-20T15:16:38.599Z,82.61
2024-01-20T15:19:07.082Z,82.34
2024-01-20T15:21:37.472Z,83.58
2024-01-20T15:24:08.768Z,82.82
2024-01-20T15:26:37.694Z,82.56
2024-01-20T15:29:05.881Z,83.35
2024-01-20T15:31:33.611Z,82.98
2024-01-20T15:34:01.658Z,81.34
2024-01-20T15:36:29.611Z,82.17
2024-01-20T15:38:58.811Z,82.74
2024-01-20T15:41:27.803Z,82.11
2024-01-20T15:43:55.596Z,82.31
2024-01-20T15:46:23.498Z,81.30
2024-01-20T15:48:51.800Z,81.26
2024-01-20T15:51:19.997Z,82.25
2024-01-20T15:53:47.790Z,82.26
2024-01-20T15:56:18.593Z,80.47
2024-01-20T15:58:47.131Z,81.66
2024-01-20T16:01:15.093Z,82.26
2024-01-20T16:03:43.068Z,81.61
2024-01-20T16:06:11.528Z,81.48
2024-01-20T16:08:39.273Z,82.36
2024-01-20T16:11:09.984Z,81.87
2024-01-20T16:13:39.150Z,81.86
2024-01-20T16:16:07.890Z,80.80
2024-01-20T16:18:36.503Z,81.69
2024-01-20T16:21:04.953Z,82.22
2024-01-20T16:23:32.835Z,82.17
2024-01-20T16:26:00.589Z,81.91
2024-01-20T16:28:30.340Z,82.00
2024-01-20T16:31:01.272Z,81.07
2024-01-20T16:33:29.352Z,81.89
2024-01-20T16:35:57.124Z,81.85
2024-01-20T16:38:24.876Z,81.79
2024-01-20T16:40:53.099Z,82.39
2024-01-20T16:43:20.801Z,81.85
2024-01-20T16:45:48.584Z,81.17
2024-01-20T16:48:18.769Z,81.43
2024-01-20T16:50:46.634Z,80.23
2024-01-20T16:53:16.030Z,81.20
2024-01-20T16:55:43.929Z,81.44
2024-01-20T16:58:11.743Z,81.51
2024-01-20T17:00:39.521Z,81.81
2024-01-20T17:03:07.890Z,80.54
2024-01-20T17:05:37.062Z,80.83
2024-01-20T17:08:05.533Z,80.76
2024-01-20T17:10:33.276Z,79.93
2024-01-20T17:13:01.498Z,80.33
2024-01-20T17:15:29.296Z,80.69
2024-01-20T17:17:57.103Z,79.45
2024-01-20T17:20:24.863Z,79.90
2024-01-20T17:22:55.748Z,79.94
2024-01-20T17:25:25.397Z,79.88
2024-01-20T17:27:53.100Z,80.19
2024-01-20T17:30:20.914Z,79.79
2024-01-20T17:32:49.313Z,80.24
2024-01-20T17:35:17.343Z,79.74
2024-01-20T17:37:45.055Z,80.13
2024-01-20T17:40:16.263Z,80.49
2024-01-20T17:42:44.586Z,79.77
2024-01-20T17:45:12.531Z,80.10
2024-01-20T17:47:44.585Z,80.27
2024-01-20T17:50:12.957Z,79.88
2024-01-20T17:52:40.768Z,80.33
2024-01-20T17:55:14.514Z,78.85
2024-01-20T17:57:42.376Z,78.60
2024-01-20T18:00:13.233Z,78.66
2024-01-20T18:02:42.091Z,78.65
2024-01-20T18:05:10.483Z,80.12
2024-01-20T18:07:38.417Z,79.84
2024-01-20T18:10:10.457Z,79.16
2024-01-20T18:12:42.690Z,79.00
2024-01-20T18:15:11.214Z,78.93
2024-01-20T18:17:39.106Z,79.12
2024-01-20T18:20:11.710Z,78.92
2024-01-20T18:22:39.616Z,79.29
2024-01-20T18:25:08.642Z,78.95
2024-01-20T18:27:36.490Z,80.51
2024-01-20T18:30:09.996Z,80.37
2024-01-20T18:32:37.913Z,79.88
2024-01-20T18:35:06.472Z,79.61
2024-01-20T18:37:34.195Z,80.01
2024-01-20T18:40:01.937Z,79.65
2024-01-20T18:42:31.301Z,80.39
2024-01-20T18:44:59.344Z,79.86
2024-01-20T18:47:28.465Z,79.68
2024-01-20T18:49:56.357Z,79.56
2024-01-20T18:52:24.133Z,79.83
2024-01-20T18:54:54.934Z,79.47
2024-01-20T18:57:23.389Z,79.53
2024-01-20T18:59:51.229Z,79.53
2024-01-20T19:02:19.130Z,79.57
2024-01-20T19:04:48.461Z,79.47
2024-01-20T19:07:16.614Z,80.14
2024-01-20T19:09:44.492Z,80.45
2024-01-20T19:12:14.520Z,79.72
2024-01-20T19:14:42.451Z,78.86
2024-01-20T19:17:16.060Z,78.96
2024-01-20T19:19:44.595Z,78.52
2024-01-20T19:22:13.870Z,78.06
2024-01-20T19:24:41.783Z,77.55
2024-01-20T19:27:12.495Z,77.80
2024-01-20T19:29:41.121Z,77.76
2024-01-20T19:32:09.710Z,78.12
2024-01-20T19:34:37.639Z,77.97
2024-01-20T19:37:05.979Z,78.52
2024-01-20T19:39:35.284Z,78.62
2024-01-20T19:42:03.027Z,78.67
2024-01-20T19:44:30.882Z,78.16
2024-01-20T19:46:58.581Z,77.26
2024-01-20T19:49:26.595Z,78.01
2024-01-20T19:51:54.403Z,76.00
2024-01-20T19:54:22.545Z,77.65
2024-01-20T19:56:53.498Z,77.09
2024-01-20T19:59:21.865Z,76.84
2024-01-20T20:01:50.325Z,77.00
2024-01-20T20:04:19.364Z,76.18
2024-01-20T20:06:47.956Z,75.39
2024-01-20T20:09:17.400Z,77.10
2024-01-20T20:11:45.513Z,77.42
2024-01-20T20:14:18.385Z,74.54
2024-01-20T20:16:46.143Z,75.16
2024-01-20T20:19:14.148Z,75.77
2024-01-20T20:21:42.270Z,75.59
2024-01-20T20:24:14.636Z,76.66
2024-01-20T20:26:43.949Z,74.83
2024-01-20T20:29:14.312Z,75.56
2024-01-20T20:31:42.372Z,75.50
2024-01-20T20:34:15.024Z,77.78
2024-01-20T20:36:42.884Z,75.65
2024-01-20T20:39:10.690Z,76.86
2024-01-20T20:41:38.640Z,77.28
2024-01-20T20:44:06.655Z,76.62
2024-01-20T20:46:35.954Z,75.96
2024-01-20T20:49:04.026Z,75.69
2024-01-20T20:51:31.993Z,76.40
2024-01-20T20:53:59.780Z,74.53
2024-01-20T20:56:27.518Z,75.52
2024-01-20T20:58:55.384Z,74.76
2024-01-20T21:01:23.184Z,75.53
2024-01-20T21:03:52.453Z,75.76
2024-01-20T21:06:20.367Z,74.44
2024-01-20T21:08:48.189Z,74.44
2024-01-20T21:11:15.968Z,74.68
2024-01-20T21:13:43.695Z,75.53
2024-01-20T21:16:11.608Z,76.21
2024-01-20T21:18:40.742Z,75.89
2024-01-20T21:21:10.493Z,75.72
2024-01-20T21:23:38.261Z,75.50
2024-01-20T21:26:08.405Z,75.46
2024-01-20T21:28:36.193Z,75.19
2024-01-20T21:31:04.386Z,75.44
2024-01-20T21:33:32.258Z,73.86
2024-01-20T21:36:00.820Z,75.49
2024-01-20T21:38:29.960Z,75.13
2024-01-20T21:40:57.847Z,74.60
2024-01-20T21:43:25.545Z,72.94
2024-01-20T21:45:53.329Z,75.07
2024-01-20T21:48:21.697Z,72.49
2024-01-20T21:50:49.639Z,73.77
2024-01-20T21:53:18.706Z,73.48
2024-01-20T21:55:47.870Z,71.74
2024-01-20T21:58:15.718Z,72.59
2024-01-20T22:00:43.873Z,72.07
2024-01-20T22:03:11.921Z,72.55
2024-01-20T22:05:39.967Z,73.46
2024-01-20T22:08:08.921Z,73.38
2024-01-20T22:10:36.702Z,72.61
2024-01-20T22:13:06.017Z,74.27
2024-01-20T22:15:34.039Z,74.25
2024-01-20T22:18:02.891Z,73.75
2024-01-20T22:20:32.217Z,73.90
2024-01-20T22:23:00.199Z,74.00
2024-01-20T22:25:28.026Z,75.37
2024-01-20T22:27:56.516Z,75.74
2024-01-20T22:30:25.847Z,75.82
2024-01-20T22:32:53.750Z,75.13
2024-01-20T22:35:21.598Z,75.31
2024-01-20T22:37:49.733Z,74.74
2024-01-20T22:40:18.004Z,75.53
2024-01-20T22:42:45.816Z,76.73
2024-01-20T22:45:17.402Z,76.20
2024-01-20T22:47:48.470Z,76.89
2024-01-20T22:50:16.406Z,76.34
2024-01-20T22:52:44.185Z,77.20
2024-01-20T22:55:12.537Z,76.88
2024-01-20T22:57:40.788Z,76.93
2024-01-20T23:00:14.033Z,76.01
2024-01-20T23:02:42.317Z,76.44
2024-01-20T23:05:11.973Z,76.47
2024-01-20T23:07:39.077Z,76.91
2024-01-20T23:10:09.114Z,76.57
2024-01-20T23:12:37.586Z,76.21
2024-01-20T23:15:06.538Z,76.27
2024-01-20T23:17:34.682Z,75.76
2024-01-20T23:20:03.109Z,75.91
2024-01-20T23:22:32.547Z,76.83
2024-01-20T23:25:00.311Z,75.95
2024-01-20T23:27:28.120Z,76.24
2024-01-20T23:29:55.851Z,75.48
2024-01-20T23:32:23.555Z,75.24
2024-01-20T23:34:51.352Z,76.28
2024-01-20T23:37:19.088Z,75.41
2024-01-20T23:39:48.312Z,75.91
2024-01-20T23:42:16.180Z,75.78
2024-01-20T23:44:44.011Z,75.67
2024-01-20T23:47:11.999Z,74.76
2024-01-20T23:49:39.947Z,74.70
2024-01-20T23:52:08.127Z,75.60
2024-01-20T23:54:35.964Z,75.52
2024-01-20T23:57:05.647Z,73.98
2024-01-20T23:59:33.471Z,73.24
